sensor_id;sensor_type;location;lat;lon;timestamp;temperature;humidity
19449;DHT22;9863;49.404;8.246;2022-12-24T00:01:18;11.50;99.90
19449;DHT22;9863;49.404;8.246;2022-12-24T00:03:45;11.60;99.90
19449;DHT22;9863;49.404;8.246;2022-12-24T00:06:16;11.60;99.90
19449;DHT22;9863;49.404;8.246;2022-12-24T00:08:45;11.60;99.90
19449;DHT22;9863;49.404;8.246;2022-12-24T00:11:12;11.70;99.90
19449;DHT22;9863;49.404;8.246;2022-12-24T00:13:39;11.60;99.90
19449;DHT22;9863;49.404;8.246;2022-12-24T00:16:06;11.50;99.90
19449;DHT22;9863;49.404;8.246;2022-12-24T00:18:33;11.50;99.90
19449;DHT22;9863;49.404;8.246;2022-12-24T00:21:09;11.30;99.90
19449;DHT22;9863;49.404;8.246;2022-12-24T00:23:36;11.20;99.90
19449;DHT22;9863;49.404;8.246;2022-12-24T00:26:03;11.20;99.90
19449;DHT22;9863;49.404;8.246;2022-12-24T00:28:30;11.20;99.90
19449;DHT22;9863;49.404;8.246;2022-12-24T00:30:57;11.10;99.90
19449;DHT22;9863;49.404;8.246;2022-12-24T00:33:24;11.00;99.90
19449;DHT22;9863;49.404;8.246;2022-12-24T00:35:51;11.00;99.90
19449;DHT22;9863;49.404;8.246;2022-12-24T00:38:19;11.00;99.90
19449;DHT22;9863;49.404;8.246;2022-12-24T00:40:46;11.10;99.90
19449;DHT22;9863;49.404;8.246;2022-12-24T00:43:13;11.10;99.90
19449;DHT22;9863;49.404;8.246;2022-12-24T00:45:40;11.00;99.90
19449;DHT22;9863;49.404;8.246;2022-12-24T00:48:07;11.00;99.90
19449;DHT22;9863;49.404;8.246;2022-12-24T00:50:34;11.10;99.90
19449;DHT22;9863;49.404;8.246;2022-12-24T00:53:01;11.00;99.90
19449;DHT22;9863;49.404;8.246;2022-12-24T00:55:28;11.10;99.90
19449;DHT22;9863;49.404;8.246;2022-12-24T00:57:55;11.10;99.90
19449;DHT22;9863;49.404;8.246;2022-12-24T01:00:22;11.00;99.90
19449;DHT22;9863;49.404;8.246;2022-12-24T01:02:49;11.00;99.90
19449;DHT22;9863;49.404;8.246;2022-12-24T01:05:16;11.10;99.90
19449;DHT22;9863;49.404;8.246;2022-12-24T01:07:46;11.10;99.90
19449;DHT22;9863;49.404;8.246;2022-12-24T01:10:17;10.90;99.90
19449;DHT22;9863;49.404;8.246;2022-12-24T01:12:45;10.80;99.90
19449;DHT22;9863;49.404;8.246;2022-12-24T01:15:13;10.70;99.90
19449;DHT22;9863;49.404;8.246;2022-12-24T01:17:41;10.80;99.90
19449;DHT22;9863;49.404;8.246;2022-12-24T01:20:12;10.90;99.90
19449;DHT22;9863;49.404;8.246;2022-12-24T01:22:41;11.00;99.90
19449;DHT22;9863;49.404;8.246;2022-12-24T01:25:10;10.80;99.90
19449;DHT22;9863;49.404;8.246;2022-12-24T01:27:38;10.80;99.90
19449;DHT22;9863;49.404;8.246;2022-12-24T01:30:07;10.60;99.90
19449;DHT22;9863;49.404;8.246;2022-12-24T01:32:35;10.50;99.90
19449;DHT22;9863;49.404;8.246;2022-12-24T01:35:02;10.40;99.90
19449;DHT22;9863;49.404;8.246;2022-12-24T01:37:29;10.40;99.90
19449;DHT22;9863;49.404;8.246;2022-12-24T01:39:56;10.20;99.90
19449;DHT22;9863;49.404;8.246;2022-12-24T01:42:46;10.10;99.90
19449;DHT22;9863;49.404;8.246;2022-12-24T01:48:03;10.20;99.90
19449;DHT22;9863;49.404;8.246;2022-12-24T01:50:31;10.40;99.90
19449;DHT22;9863;49.404;8.246;2022-12-24T01:52:58;10.10;99.90
19449;DHT22;9863;49.404;8.246;2022-12-24T01:55:25;10.10;99.90
19449;DHT22;9863;49.404;8.246;2022-12-24T01:57:55;10.20;99.90
19449;DHT22;9863;49.404;8.246;2022-12-24T02:00:24;10.10;99.90
19449;DHT22;9863;49.404;8.246;2022-12-24T02:02:52;10.10;99.90
19449;DHT22;9863;49.404;8.246;2022-12-24T02:08:18;9.80;99.90
19449;DHT22;9863;49.404;8.246;2022-12-24T02:11:01;10.00;99.90
19449;DHT22;9863;49.404;8.246;2022-12-24T02:13:28;10.00;99.90
19449;DHT22;9863;49.404;8.246;2022-12-24T02:16:16;10.10;99.90
19449;DHT22;9863;49.404;8.246;2022-12-24T02:19:04;10.40;99.90
19449;DHT22;9863;49.404;8.246;2022-12-24T02:21:53;10.40;99.90
19449;DHT22;9863;49.404;8.246;2022-12-24T02:27:32;10.20;99.90
19449;DHT22;9863;49.404;8.246;2022-12-24T02:38:30;10.20;99.90
19449;DHT22;9863;49.404;8.246;2022-12-24T02:41:13;10.30;99.90
19449;DHT22;9863;49.404;8.246;2022-12-24T02:43:45;10.30;99.90
19449;DHT22;9863;49.404;8.246;2022-12-24T02:46:24;10.30;99.90
19449;DHT22;9863;49.404;8.246;2022-12-24T02:48:52;10.40;99.90
19449;DHT22;9863;49.404;8.246;2022-12-24T02:51:22;10.30;99.90
19449;DHT22;9863;49.404;8.246;2022-12-24T02:53:50;10.30;99.90
19449;DHT22;9863;49.404;8.246;2022-12-24T03:05:51;9.90;99.90
19449;DHT22;9863;49.404;8.246;2022-12-24T03:11:11;9.80;99.90
19449;DHT22;9863;49.404;8.246;2022-12-24T03:13:40;9.80;99.90
19449;DHT22;9863;49.404;8.246;2022-12-24T03:16:12;9.70;99.90
19449;DHT22;9863;49.404;8.246;2022-12-24T03:18:44;9.70;99.90
19449;DHT22;9863;49.404;8.246;2022-12-24T03:21:17;9.70;99.90
19449;DHT22;9863;49.404;8.246;2022-12-24T03:23:47;9.70;99.90
19449;DHT22;9863;49.404;8.246;2022-12-24T03:26:16;9.80;99.90
19449;DHT22;9863;49.404;8.246;2022-12-24T03:28:45;9.80;99.90
19449;DHT22;9863;49.404;8.246;2022-12-24T03:31:13;9.90;99.90
19449;DHT22;9863;49.404;8.246;2022-12-24T03:33:41;9.90;99.90
19449;DHT22;9863;49.404;8.246;2022-12-24T03:36:08;9.80;99.90
19449;DHT22;9863;49.404;8.246;2022-12-24T03:38:36;9.80;99.90
19449;DHT22;9863;49.404;8.246;2022-12-24T03:41:04;9.70;99.90
19449;DHT22;9863;49.404;8.246;2022-12-24T03:43:31;9.70;99.90
19449;DHT22;9863;49.404;8.246;2022-12-24T03:46:03;9.80;99.90
19449;DHT22;9863;49.404;8.246;2022-12-24T03:48:33;9.90;99.90
19449;DHT22;9863;49.404;8.246;2022-12-24T03:51:02;9.90;99.90
19449;DHT22;9863;49.404;8.246;2022-12-24T03:53:30;9.90;99.90
19449;DHT22;9863;49.404;8.246;2022-12-24T03:55:57;10.00;99.90
19449;DHT22;9863;49.404;8.246;2022-12-24T03:58:25;10.00;99.90
19449;DHT22;9863;49.404;8.246;2022-12-24T04:00:52;9.90;99.90
19449;DHT22;9863;49.404;8.246;2022-12-24T04:03:19;9.90;99.90
19449;DHT22;9863;49.404;8.246;2022-12-24T04:05:47;9.80;99.90
19449;DHT22;9863;49.404;8.246;2022-12-24T04:08:14;9.80;99.90
19449;DHT22;9863;49.404;8.246;2022-12-24T04:10:41;9.80;99.90
19449;DHT22;9863;49.404;8.246;2022-12-24T04:13:08;9.80;99.90
19449;DHT22;9863;49.404;8.246;2022-12-24T04:15:35;9.80;99.90
19449;DHT22;9863;49.404;8.246;2022-12-24T04:18:02;9.90;99.90
19449;DHT22;9863;49.404;8.246;2022-12-24T04:20:29;9.90;99.90
19449;DHT22;9863;49.404;8.246;2022-12-24T04:22:56;9.90;99.90
19449;DHT22;9863;49.404;8.246;2022-12-24T04:25:23;9.90;99.90
19449;DHT22;9863;49.404;8.246;2022-12-24T04:27:50;9.80;99.90
19449;DHT22;9863;49.404;8.246;2022-12-24T04:30:18;9.80;99.90
19449;DHT22;9863;49.404;8.246;2022-12-24T04:32:45;9.80;99.90
19449;DHT22;9863;49.404;8.246;2022-12-24T04:35:12;9.80;99.90
19449;DHT22;9863;49.404;8.246;2022-12-24T04:37:39;9.70;99.90
19449;DHT22;9863;49.404;8.246;2022-12-24T04:40:06;9.70;99.90
19449;DHT22;9863;49.404;8.246;2022-12-24T04:42:34;9.80;99.90
19449;DHT22;9863;49.404;8.246;2022-12-24T04:45:01;9.80;99.90
19449;DHT22;9863;49.404;8.246;2022-12-24T04:47:28;9.90;99.90
19449;DHT22;9863;49.404;8.246;2022-12-24T04:49:55;9.80;99.90
19449;DHT22;9863;49.404;8.246;2022-12-24T04:52:22;9.80;99.90
19449;DHT22;9863;49.404;8.246;2022-12-24T04:54:49;9.80;99.90
19449;DHT22;9863;49.404;8.246;2022-12-24T04:57:16;9.70;99.90
19449;DHT22;9863;49.404;8.246;2022-12-24T04:59:43;9.70;99.90
19449;DHT22;9863;49.404;8.246;2022-12-24T05:02:10;9.70;99.90
19449;DHT22;9863;49.404;8.246;2022-12-24T05:04:38;9.80;99.90
19449;DHT22;9863;49.404;8.246;2022-12-24T05:07:05;9.90;99.90
19449;DHT22;9863;49.404;8.246;2022-12-24T05:09:32;9.70;99.90
19449;DHT22;9863;49.404;8.246;2022-12-24T05:11:59;9.70;99.90
19449;DHT22;9863;49.404;8.246;2022-12-24T05:14:26;9.90;99.90
19449;DHT22;9863;49.404;8.246;2022-12-24T05:16:53;10.00;99.90
19449;DHT22;9863;49.404;8.246;2022-12-24T05:19:20;10.00;99.90
19449;DHT22;9863;49.404;8.246;2022-12-24T05:21:48;10.10;99.90
19449;DHT22;9863;49.404;8.246;2022-12-24T05:24:35;10.00;99.90
19449;DHT22;9863;49.404;8.246;2022-12-24T05:27:20;9.90;99.90
19449;DHT22;9863;49.404;8.246;2022-12-24T05:29:47;9.90;99.90
19449;DHT22;9863;49.404;8.246;2022-12-24T05:32:14;9.90;99.90
19449;DHT22;9863;49.404;8.246;2022-12-24T05:34:41;9.90;99.90
19449;DHT22;9863;49.404;8.246;2022-12-24T05:37:08;10.00;99.90
19449;DHT22;9863;49.404;8.246;2022-12-24T05:39:35;10.00;99.90
19449;DHT22;9863;49.404;8.246;2022-12-24T05:42:02;10.10;99.90
19449;DHT22;9863;49.404;8.246;2022-12-24T05:44:30;10.10;99.90
19449;DHT22;9863;49.404;8.246;2022-12-24T05:46:57;10.10;99.90
19449;DHT22;9863;49.404;8.246;2022-12-24T05:49:24;10.10;99.90
19449;DHT22;9863;49.404;8.246;2022-12-24T05:51:51;10.20;99.90
19449;DHT22;9863;49.404;8.246;2022-12-24T05:54:18;10.10;99.90
19449;DHT22;9863;49.404;8.246;2022-12-24T05:56:45;10.00;99.90
19449;DHT22;9863;49.404;8.246;2022-12-24T05:59:12;10.00;99.90
19449;DHT22;9863;49.404;8.246;2022-12-24T06:01:39;10.20;99.90
19449;DHT22;9863;49.404;8.246;2022-12-24T06:04:06;10.10;99.90
19449;DHT22;9863;49.404;8.246;2022-12-24T06:06:33;10.20;99.90
19449;DHT22;9863;49.404;8.246;2022-12-24T06:09:00;10.20;99.90
19449;DHT22;9863;49.404;8.246;2022-12-24T06:11:28;10.20;99.90
19449;DHT22;9863;49.404;8.246;2022-12-24T06:13:59;10.20;99.90
19449;DHT22;9863;49.404;8.246;2022-12-24T06:16:26;10.30;99.90
19449;DHT22;9863;49.404;8.246;2022-12-24T06:18:53;10.30;99.90
19449;DHT22;9863;49.404;8.246;2022-12-24T06:21:21;10.20;99.90
19449;DHT22;9863;49.404;8.246;2022-12-24T06:23:48;10.30;99.90
19449;DHT22;9863;49.404;8.246;2022-12-24T06:26:18;10.30;99.90
19449;DHT22;9863;49.404;8.246;2022-12-24T06:28:47;10.20;99.90
19449;DHT22;9863;49.404;8.246;2022-12-24T06:31:18;10.10;99.90
19449;DHT22;9863;49.404;8.246;2022-12-24T06:33:46;10.10;99.90
19449;DHT22;9863;49.404;8.246;2022-12-24T06:36:19;10.10;99.90
19449;DHT22;9863;49.404;8.246;2022-12-24T06:38:49;10.20;99.90
19449;DHT22;9863;49.404;8.246;2022-12-24T06:41:17;10.20;99.90
19449;DHT22;9863;49.404;8.246;2022-12-24T06:43:49;10.10;99.90
19449;DHT22;9863;49.404;8.246;2022-12-24T06:46:18;10.20;99.90
19449;DHT22;9863;49.404;8.246;2022-12-24T06:48:46;10.20;99.90
19449;DHT22;9863;49.404;8.246;2022-12-24T06:51:15;10.20;99.90
19449;DHT22;9863;49.404;8.246;2022-12-24T06:53:46;10.10;99.90
19449;DHT22;9863;49.404;8.246;2022-12-24T06:56:17;10.00;99.90
19449;DHT22;9863;49.404;8.246;2022-12-24T06:58:44;10.00;99.90
19449;DHT22;9863;49.404;8.246;2022-12-24T07:01:13;10.00;99.90
19449;DHT22;9863;49.404;8.246;2022-12-24T07:03:42;10.00;99.90
19449;DHT22;9863;49.404;8.246;2022-12-24T07:06:32;10.00;99.90
19449;DHT22;9863;49.404;8.246;2022-12-24T07:08:59;10.20;99.90
19449;DHT22;9863;49.404;8.246;2022-12-24T07:11:26;10.20;99.90
19449;DHT22;9863;49.404;8.246;2022-12-24T07:13:53;10.10;99.90
19449;DHT22;9863;49.404;8.246;2022-12-24T07:16:20;10.10;99.90
19449;DHT22;9863;49.404;8.246;2022-12-24T07:18:47;10.20;99.90
19449;DHT22;9863;49.404;8.246;2022-12-24T07:21:14;10.20;99.90
19449;DHT22;9863;49.404;8.246;2022-12-24T07:23:41;10.20;99.90
19449;DHT22;9863;49.404;8.246;2022-12-24T07:26:09;10.20;99.90
19449;DHT22;9863;49.404;8.246;2022-12-24T07:28:37;10.20;99.90
19449;DHT22;9863;49.404;8.246;2022-12-24T07:31:04;10.10;99.90
19449;DHT22;9863;49.404;8.246;2022-12-24T07:33:31;10.20;99.90
19449;DHT22;9863;49.404;8.246;2022-12-24T07:36:06;10.20;99.90
19449;DHT22;9863;49.404;8.246;2022-12-24T07:38:34;10.10;99.90
19449;DHT22;9863;49.404;8.246;2022-12-24T07:41:02;10.00;99.90
19449;DHT22;9863;49.404;8.246;2022-12-24T07:43:32;10.00;99.90
19449;DHT22;9863;49.404;8.246;2022-12-24T07:45:59;10.00;99.90
19449;DHT22;9863;49.404;8.246;2022-12-24T07:48:27;10.00;99.90
19449;DHT22;9863;49.404;8.246;2022-12-24T07:50:56;10.00;99.90
19449;DHT22;9863;49.404;8.246;2022-12-24T07:53:25;10.10;99.90
19449;DHT22;9863;49.404;8.246;2022-12-24T07:55:53;10.10;99.90
19449;DHT22;9863;49.404;8.246;2022-12-24T07:58:21;10.20;99.90
19449;DHT22;9863;49.404;8.246;2022-12-24T08:00:48;10.10;99.90
19449;DHT22;9863;49.404;8.246;2022-12-24T08:03:19;10.20;99.90
19449;DHT22;9863;49.404;8.246;2022-12-24T08:05:47;10.20;99.90
19449;DHT22;9863;49.404;8.246;2022-12-24T08:08:14;10.20;99.90
19449;DHT22;9863;49.404;8.246;2022-12-24T08:10:42;10.20;99.90
19449;DHT22;9863;49.404;8.246;2022-12-24T08:13:11;10.20;99.90
19449;DHT22;9863;49.404;8.246;2022-12-24T08:15:38;10.20;99.90
19449;DHT22;9863;49.404;8.246;2022-12-24T08:18:06;10.20;99.90
19449;DHT22;9863;49.404;8.246;2022-12-24T08:20:36;10.30;99.90
19449;DHT22;9863;49.404;8.246;2022-12-24T08:23:06;10.30;99.90
19449;DHT22;9863;49.404;8.246;2022-12-24T08:25:34;10.20;99.90
19449;DHT22;9863;49.404;8.246;2022-12-24T08:28:02;10.30;99.90
19449;DHT22;9863;49.404;8.246;2022-12-24T08:30:30;10.20;99.90
19449;DHT22;9863;49.404;8.246;2022-12-24T08:32:57;10.20;99.90
19449;DHT22;9863;49.404;8.246;2022-12-24T08:35:24;10.30;99.90
19449;DHT22;9863;49.404;8.246;2022-12-24T08:37:52;10.30;99.90
19449;DHT22;9863;49.404;8.246;2022-12-24T08:40:19;10.30;99.90
19449;DHT22;9863;49.404;8.246;2022-12-24T08:42:46;10.30;99.90
19449;DHT22;9863;49.404;8.246;2022-12-24T08:45:14;10.40;99.90
19449;DHT22;9863;49.404;8.246;2022-12-24T08:47:41;10.40;99.90
19449;DHT22;9863;49.404;8.246;2022-12-24T08:50:09;10.40;99.90
19449;DHT22;9863;49.404;8.246;2022-12-24T08:52:37;10.40;99.90
19449;DHT22;9863;49.404;8.246;2022-12-24T08:55:04;10.40;99.90
19449;DHT22;9863;49.404;8.246;2022-12-24T08:57:35;10.40;99.90
19449;DHT22;9863;49.404;8.246;2022-12-24T09:00:05;10.40;99.90
19449;DHT22;9863;49.404;8.246;2022-12-24T09:02:33;10.40;99.90
19449;DHT22;9863;49.404;8.246;2022-12-24T09:05:01;10.40;99.90
19449;DHT22;9863;49.404;8.246;2022-12-24T09:07:28;10.40;99.90
19449;DHT22;9863;49.404;8.246;2022-12-24T09:09:55;10.50;99.90
19449;DHT22;9863;49.404;8.246;2022-12-24T09:12:22;10.60;99.90
19449;DHT22;9863;49.404;8.246;2022-12-24T09:14:50;10.70;99.90
19449;DHT22;9863;49.404;8.246;2022-12-24T09:17:17;10.70;99.90
19449;DHT22;9863;49.404;8.246;2022-12-24T09:19:45;10.60;99.90
19449;DHT22;9863;49.404;8.246;2022-12-24T09:22:13;10.70;99.90
19449;DHT22;9863;49.404;8.246;2022-12-24T09:24:40;10.80;99.90
19449;DHT22;9863;49.404;8.246;2022-12-24T09:27:07;10.70;99.90
19449;DHT22;9863;49.404;8.246;2022-12-24T09:29:34;11.00;99.90
19449;DHT22;9863;49.404;8.246;2022-12-24T09:32:02;11.10;99.90
19449;DHT22;9863;49.404;8.246;2022-12-24T09:34:29;11.00;99.90
19449;DHT22;9863;49.404;8.246;2022-12-24T09:36:57;11.00;99.90
19449;DHT22;9863;49.404;8.246;2022-12-24T09:39:25;11.00;99.90
19449;DHT22;9863;49.404;8.246;2022-12-24T09:45:12;11.00;99.90
19449;DHT22;9863;49.404;8.246;2022-12-24T09:47:49;11.00;99.90
19449;DHT22;9863;49.404;8.246;2022-12-24T09:50:38;11.00;99.90
19449;DHT22;9863;49.404;8.246;2022-12-24T09:56:32;11.10;99.90
19449;DHT22;9863;49.404;8.246;2022-12-24T09:59:05;11.10;99.90
19449;DHT22;9863;49.404;8.246;2022-12-24T10:01:35;11.20;99.90
19449;DHT22;9863;49.404;8.246;2022-12-24T10:04:14;11.20;99.90
19449;DHT22;9863;49.404;8.246;2022-12-24T10:13:16;11.30;99.90
19449;DHT22;9863;49.404;8.246;2022-12-24T10:16:01;11.40;99.90
19449;DHT22;9863;49.404;8.246;2022-12-24T10:18:55;11.50;99.90
19449;DHT22;9863;49.404;8.246;2022-12-24T10:21:32;11.50;99.90
19449;DHT22;9863;49.404;8.246;2022-12-24T10:24:15;11.50;99.90
19449;DHT22;9863;49.404;8.246;2022-12-24T10:27:04;11.50;99.90
19449;DHT22;9863;49.404;8.246;2022-12-24T10:29:41;11.50;99.90
19449;DHT22;9863;49.404;8.246;2022-12-24T10:32:24;11.50;99.90
19449;DHT22;9863;49.404;8.246;2022-12-24T10:34:58;11.50;99.90
19449;DHT22;9863;49.404;8.246;2022-12-24T10:37:48;11.50;99.90
19449;DHT22;9863;49.404;8.246;2022-12-24T10:40:31;11.50;99.90
19449;DHT22;9863;49.404;8.246;2022-12-24T10:43:18;11.50;99.90
19449;DHT22;9863;49.404;8.246;2022-12-24T10:45:54;11.50;99.90
19449;DHT22;9863;49.404;8.246;2022-12-24T10:48:38;11.60;99.90
19449;DHT22;9863;49.404;8.246;2022-12-24T10:51:20;11.50;99.90
19449;DHT22;9863;49.404;8.246;2022-12-24T10:53:58;11.60;99.90
19449;DHT22;9863;49.404;8.246;2022-12-24T10:56:27;11.50;99.90
19449;DHT22;9863;49.404;8.246;2022-12-24T10:58:55;11.50;99.90
19449;DHT22;9863;49.404;8.246;2022-12-24T11:01:41;11.50;99.90
19449;DHT22;9863;49.404;8.246;2022-12-24T11:04:21;11.50;99.90
19449;DHT22;9863;49.404;8.246;2022-12-24T11:07:04;11.40;99.90
19449;DHT22;9863;49.404;8.246;2022-12-24T11:09:38;11.50;99.90
19449;DHT22;9863;49.404;8.246;2022-12-24T11:12:19;11.50;99.90
19449;DHT22;9863;49.404;8.246;2022-12-24T11:14:59;11.50;99.90
19449;DHT22;9863;49.404;8.246;2022-12-24T11:17:32;11.50;99.90
19449;DHT22;9863;49.404;8.246;2022-12-24T11:19:59;11.50;99.90
19449;DHT22;9863;49.404;8.246;2022-12-24T11:22:31;11.50;99.90
19449;DHT22;9863;49.404;8.246;2022-12-24T11:25:20;11.50;99.90
19449;DHT22;9863;49.404;8.246;2022-12-24T11:27:50;11.50;99.90
19449;DHT22;9863;49.404;8.246;2022-12-24T11:35:28;11.50;99.90
19449;DHT22;9863;49.404;8.246;2022-12-24T11:40:44;11.50;99.90
19449;DHT22;9863;49.404;8.246;2022-12-24T11:43:20;11.50;99.90
19449;DHT22;9863;49.404;8.246;2022-12-24T11:45:56;11.50;99.90
19449;DHT22;9863;49.404;8.246;2022-12-24T11:48:38;11.50;99.90
19449;DHT22;9863;49.404;8.246;2022-12-24T11:51:08;11.50;99.90
19449;DHT22;9863;49.404;8.246;2022-12-24T11:54:06;11.50;99.90
19449;DHT22;9863;49.404;8.246;2022-12-24T11:56:47;11.70;99.90
19449;DHT22;9863;49.404;8.246;2022-12-24T11:59:37;11.80;99.90
19449;DHT22;9863;49.404;8.246;2022-12-24T12:04:52;11.90;99.90
19449;DHT22;9863;49.404;8.246;2022-12-24T12:07:24;11.80;99.90
19449;DHT22;9863;49.404;8.246;2022-12-24T12:12:33;11.70;99.90
19449;DHT22;9863;49.404;8.246;2022-12-24T12:17:50;11.70;99.90
19449;DHT22;9863;49.404;8.246;2022-12-24T12:26:29;11.90;99.90
19449;DHT22;9863;49.404;8.246;2022-12-24T12:31:54;11.80;99.90
19449;DHT22;9863;49.404;8.246;2022-12-24T12:34:55;11.80;99.90
19449;DHT22;9863;49.404;8.246;2022-12-24T12:37:44;11.80;99.90
19449;DHT22;9863;49.404;8.246;2022-12-24T12:40:17;11.90;99.90
19449;DHT22;9863;49.404;8.246;2022-12-24T12:52:21;11.80;99.90
19449;DHT22;9863;49.404;8.246;2022-12-24T12:55:04;11.70;99.90
19449;DHT22;9863;49.404;8.246;2022-12-24T12:57:52;11.60;99.90
19449;DHT22;9863;49.404;8.246;2022-12-24T13:00:22;11.60;99.90
19449;DHT22;9863;49.404;8.246;2022-12-24T13:08:50;11.40;99.90
19449;DHT22;9863;49.404;8.246;2022-12-24T13:11:33;11.50;99.90
19449;DHT22;9863;49.404;8.246;2022-12-24T13:14:32;11.40;99.90
19449;DHT22;9863;49.404;8.246;2022-12-24T13:22:38;11.30;99.90
19449;DHT22;9863;49.404;8.246;2022-12-24T13:25:05;11.40;99.90
19449;DHT22;9863;49.404;8.246;2022-12-24T13:27:44;11.30;99.90
19449;DHT22;9863;49.404;8.246;2022-12-24T13:30:31;11.30;99.90
19449;DHT22;9863;49.404;8.246;2022-12-24T13:33:10;11.30;99.90
19449;DHT22;9863;49.404;8.246;2022-12-24T13:35:56;11.30;99.90
19449;DHT22;9863;49.404;8.246;2022-12-24T13:38:30;11.20;99.90
19449;DHT22;9863;49.404;8.246;2022-12-24T13:54:58;11.10;99.90
19449;DHT22;9863;49.404;8.246;2022-12-24T14:02:57;10.90;99.90
19449;DHT22;9863;49.404;8.246;2022-12-24T14:05:29;11.00;99.90
19449;DHT22;9863;49.404;8.246;2022-12-24T14:08:00;10.90;99.90
19449;DHT22;9863;49.404;8.246;2022-12-24T14:10:38;10.90;99.90
19449;DHT22;9863;49.404;8.246;2022-12-24T14:16:27;10.90;99.90
19449;DHT22;9863;49.404;8.246;2022-12-24T14:22:32;10.80;99.90
19449;DHT22;9863;49.404;8.246;2022-12-24T14:24:41;10.90;99.90
19449;DHT22;9863;49.404;8.246;2022-12-24T14:27:13;10.90;99.90
19449;DHT22;9863;49.404;8.246;2022-12-24T14:29:49;11.00;99.90
19449;DHT22;9863;49.404;8.246;2022-12-24T14:32:19;11.00;99.90
19449;DHT22;9863;49.404;8.246;2022-12-24T14:34:46;11.00;99.90
19449;DHT22;9863;49.404;8.246;2022-12-24T14:37:13;11.00;99.90
19449;DHT22;9863;49.404;8.246;2022-12-24T14:39:43;11.00;99.90
19449;DHT22;9863;49.404;8.246;2022-12-24T14:51:05;10.80;99.90
19449;DHT22;9863;49.404;8.246;2022-12-24T14:56:22;10.70;99.90
19449;DHT22;9863;49.404;8.246;2022-12-24T14:58:49;10.70;99.90
19449;DHT22;9863;49.404;8.246;2022-12-24T15:01:30;10.70;99.90
19449;DHT22;9863;49.404;8.246;2022-12-24T15:06:48;10.60;99.90
19449;DHT22;9863;49.404;8.246;2022-12-24T15:09:21;10.50;99.90
19449;DHT22;9863;49.404;8.246;2022-12-24T15:11:55;10.50;99.90
19449;DHT22;9863;49.404;8.246;2022-12-24T15:14:26;10.60;99.90
19449;DHT22;9863;49.404;8.246;2022-12-24T15:16:57;10.50;99.90
19449;DHT22;9863;49.404;8.246;2022-12-24T15:19:29;10.50;99.90
19449;DHT22;9863;49.404;8.246;2022-12-24T15:22:00;10.50;99.90
19449;DHT22;9863;49.404;8.246;2022-12-24T15:24:31;10.40;99.90
19449;DHT22;9863;49.404;8.246;2022-12-24T15:27:10;10.40;99.90
19449;DHT22;9863;49.404;8.246;2022-12-24T15:29:44;10.40;99.90
19449;DHT22;9863;49.404;8.246;2022-12-24T15:32:14;10.20;99.90
19449;DHT22;9863;49.404;8.246;2022-12-24T15:34:53;10.20;99.90
19449;DHT22;9863;49.404;8.246;2022-12-24T15:37:36;10.20;99.90
19449;DHT22;9863;49.404;8.246;2022-12-24T15:40:08;10.20;99.90
19449;DHT22;9863;49.404;8.246;2022-12-24T15:42:40;10.20;99.90
19449;DHT22;9863;49.404;8.246;2022-12-24T15:45:12;10.10;99.90
19449;DHT22;9863;49.404;8.246;2022-12-24T15:47:56;10.20;99.90
19449;DHT22;9863;49.404;8.246;2022-12-24T15:50:42;10.20;99.90
19449;DHT22;9863;49.404;8.246;2022-12-24T15:53:15;10.10;99.90
19449;DHT22;9863;49.404;8.246;2022-12-24T15:56:01;10.10;99.90
19449;DHT22;9863;49.404;8.246;2022-12-24T15:58:38;10.10;99.90
19449;DHT22;9863;49.404;8.246;2022-12-24T16:03:59;10.10;99.90
19449;DHT22;9863;49.404;8.246;2022-12-24T16:06:27;10.00;99.90
19449;DHT22;9863;49.404;8.246;2022-12-24T16:09:30;10.00;99.90
19449;DHT22;9863;49.404;8.246;2022-12-24T16:12:02;10.10;99.90
19449;DHT22;9863;49.404;8.246;2022-12-24T16:14:31;10.10;99.90
19449;DHT22;9863;49.404;8.246;2022-12-24T16:16:59;10.00;99.90
19449;DHT22;9863;49.404;8.246;2022-12-24T16:19:31;10.00;99.90
19449;DHT22;9863;49.404;8.246;2022-12-24T16:22:05;10.00;99.90
19449;DHT22;9863;49.404;8.246;2022-12-24T16:24:51;10.10;99.90
19449;DHT22;9863;49.404;8.246;2022-12-24T16:27:21;10.10;99.90
19449;DHT22;9863;49.404;8.246;2022-12-24T16:29:48;10.10;99.90
19449;DHT22;9863;49.404;8.246;2022-12-24T16:32:26;10.00;99.90
19449;DHT22;9863;49.404;8.246;2022-12-24T16:35:00;10.00;99.90
19449;DHT22;9863;49.404;8.246;2022-12-24T16:37:28;10.00;99.90
19449;DHT22;9863;49.404;8.246;2022-12-24T16:39:56;10.10;99.90
19449;DHT22;9863;49.404;8.246;2022-12-24T16:42:23;10.20;99.90
19449;DHT22;9863;49.404;8.246;2022-12-24T16:45:09;10.20;99.90
19449;DHT22;9863;49.404;8.246;2022-12-24T16:47:36;10.20;99.90
19449;DHT22;9863;49.404;8.246;2022-12-24T16:50:14;10.30;99.90
19449;DHT22;9863;49.404;8.246;2022-12-24T16:52:42;10.20;99.90
19449;DHT22;9863;49.404;8.246;2022-12-24T16:55:12;10.20;99.90
19449;DHT22;9863;49.404;8.246;2022-12-24T16:57:40;10.30;99.90
19449;DHT22;9863;49.404;8.246;2022-12-24T17:00:17;10.30;99.90
19449;DHT22;9863;49.404;8.246;2022-12-24T17:02:47;10.20;99.90
19449;DHT22;9863;49.404;8.246;2022-12-24T17:05:15;10.20;99.90
19449;DHT22;9863;49.404;8.246;2022-12-24T17:07:42;10.20;99.90
19449;DHT22;9863;49.404;8.246;2022-12-24T17:10:13;10.20;99.90
19449;DHT22;9863;49.404;8.246;2022-12-24T17:12:41;10.30;99.90
19449;DHT22;9863;49.404;8.246;2022-12-24T17:15:09;10.30;99.90
19449;DHT22;9863;49.404;8.246;2022-12-24T17:17:36;10.30;99.90
19449;DHT22;9863;49.404;8.246;2022-12-24T17:20:04;10.20;99.90
19449;DHT22;9863;49.404;8.246;2022-12-24T17:22:32;10.20;99.90
19449;DHT22;9863;49.404;8.246;2022-12-24T17:24:59;10.30;99.90
19449;DHT22;9863;49.404;8.246;2022-12-24T17:27:26;10.30;99.90
19449;DHT22;9863;49.404;8.246;2022-12-24T17:29:53;10.30;99.90
19449;DHT22;9863;49.404;8.246;2022-12-24T17:32:21;10.50;99.90
19449;DHT22;9863;49.404;8.246;2022-12-24T17:34:48;10.50;99.90
19449;DHT22;9863;49.404;8.246;2022-12-24T17:37:15;10.60;99.90
19449;DHT22;9863;49.404;8.246;2022-12-24T17:39:42;10.60;99.90
19449;DHT22;9863;49.404;8.246;2022-12-24T17:42:09;10.60;99.90
19449;DHT22;9863;49.404;8.246;2022-12-24T17:44:37;10.70;99.90
19449;DHT22;9863;49.404;8.246;2022-12-24T17:47:04;10.60;99.90
19449;DHT22;9863;49.404;8.246;2022-12-24T17:49:31;10.60;99.90
19449;DHT22;9863;49.404;8.246;2022-12-24T17:51:58;10.60;99.90
19449;DHT22;9863;49.404;8.246;2022-12-24T17:54:25;10.50;99.90
19449;DHT22;9863;49.404;8.246;2022-12-24T17:56:52;10.50;99.90
19449;DHT22;9863;49.404;8.246;2022-12-24T17:59:19;10.50;99.90
19449;DHT22;9863;49.404;8.246;2022-12-24T18:01:46;10.40;99.90
19449;DHT22;9863;49.404;8.246;2022-12-24T18:04:14;10.30;99.90
19449;DHT22;9863;49.404;8.246;2022-12-24T18:06:41;10.30;99.90
19449;DHT22;9863;49.404;8.246;2022-12-24T18:09:15;10.20;99.90
19449;DHT22;9863;49.404;8.246;2022-12-24T18:11:42;10.10;99.90
19449;DHT22;9863;49.404;8.246;2022-12-24T18:14:10;9.90;99.90
19449;DHT22;9863;49.404;8.246;2022-12-24T18:16:40;9.70;99.90
19449;DHT22;9863;49.404;8.246;2022-12-24T18:19:10;9.70;99.90
19449;DHT22;9863;49.404;8.246;2022-12-24T18:21:38;9.70;99.90
19449;DHT22;9863;49.404;8.246;2022-12-24T18:24:06;9.70;99.90